CST,Max TemperatureF,Mean TemperatureF,Min TemperatureF,Max Dew PointF,MeanDew PointF,Min DewpointF,Max Humidity, Mean Humidity, Min Humidity, Max Sea Level PressureIn, Mean Sea Level PressureIn, Min Sea Level PressureIn, Max VisibilityMiles, Mean VisibilityMiles, Min VisibilityMiles, Max Wind SpeedMPH, Mean Wind SpeedMPH, Max Gust SpeedMPH,PrecipitationIn, CloudCover, Events, WindDirDegrees
2012-11-1,64,51,38,40,36,32,81,61,32,30.00,29.97,29.95,10,9,2,17,5,21,0.00,1,,17
2012-11-2,59,50,39,37,32,27,81,57,34,30.07,29.95,29.88,10,10,7,15,8,23,0.00,0,,75
2012-11-3,56,42,29,32,29,25,86,63,36,30.22,30.17,30.07,10,10,1,9,6,,0.00,1,,348
2012-11-4,66,52,38,42,34,29,80,57,26,30.19,30.10,30.00,10,10,10,18,5,25,0.00,5,Rain,215
2012-11-5,47,44,40,40,36,34,83,76,70,30.16,30.11,30.04,10,9,7,22,13,28,0.00,8,,343
2012-11-6,60,46,33,37,27,16,83,53,19,30.11,30.05,29.97,10,9,1,31,12,39,0.01,1,,298
2012-11-7,56,42,28,30,26,21,75,53,31,30.20,30.10,30.02,10,10,10,10,4,,0.00,0,,160
2012-11-8,68,54,40,37,31,26,71,45,26,30.01,29.90,29.83,10,10,10,20,9,25,0.00,0,,154
2012-11-9,74,58,42,55,45,35,82,63,35,29.83,29.74,29.63,10,10,10,14,6,18,0.00,0,,127
2012-11-10,76,61,45,56,52,40,86,58,40,29.66,29.59,29.50,10,10,4,33,20,47,0.41,2,Rain-Thunderstorm,190
2012-11-11,42,32,23,39,19,10,89,65,38,30.21,29.98,29.69,10,9,3,25,18,31,0.00,4,Rain,315
2012-11-12,45,32,20,18,14,9,74,53,23,30.37,30.30,30.21,10,10,10,20,8,29,0.00,0,,274
2012-11-13,58,40,23,27,21,15,71,49,20,30.38,30.32,30.25,10,10,10,13,4,,0.00,0,,171
2012-11-14,58,44,30,26,23,14,78,46,18,30.32,30.26,30.19,10,10,10,16,7,21,0.00,0,,179
2012-11-15,58,46,33,31,28,25,77,54,30,30.42,30.29,30.19,10,10,10,10,4,,0.00,4,,193
2012-11-16,59,42,25,34,29,21,87,62,32,30.45,30.37,30.29,10,10,7,13,3,20,0.00,0,,149
2012-11-17,63,50,37,32,30,25,76,51,27,30.30,30.21,30.15,10,10,10,24,11,32,0.00,0,,163
2012-11-18,64,53,42,33,28,23,53,39,28,30.16,30.08,30.01,10,10,10,18,12,25,0.00,1,,165
2012-11-19,66,51,34,40,34,30,83,58,29,30.15,30.06,30.00,10,10,5,14,9,17,0.00,0,,227
2012-11-20,65,48,31,38,31,26,86,56,24,30.24,30.18,30.14,10,10,10,8,3,,0.00,0,,194
2012-11-21,73,58,42,44,38,32,70,50,23,30.15,30.01,29.83,10,10,10,29,12,37,0.00,0,,185
2012-11-22,64,49,34,46,36,23,73,53,28,30.30,29.96,29.76,10,10,10,30,13,36,0.00,0,,281
2012-11-23,39,30,20,24,9,1,61,44,22,30.54,30.45,30.30,10,10,10,28,14,43,0.00,0,,320
2012-11-24,50,34,19,25,15,10,70,46,26,30.38,30.07,29.84,10,10,10,22,6,28,0.00,0,,164
2012-11-25,49,38,27,28,24,20,78,62,35,30.12,29.98,29.88,10,10,10,13,5,18,0.00,0,,24
2012-11-26,35,24,14,26,20,7,80,69,55,30.46,30.32,30.12,10,10,5,18,9,23,0.00,4,Snow,17
2012-11-27,45,28,11,22,15,6,80,65,37,30.45,30.31,30.18,10,10,10,18,4,24,0.00,0,,208
2012-11-28,54,34,14,27,21,10,85,60,29,30.37,30.25,30.10,10,10,7,14,4,18,0.00,0,,176
2012-11-29,58,44,30,34,30,26,87,65,38,30.10,29.99,29.91,10,10,10,10,6,,0.00,0,,188
2012-11-30,51,38,26,32,28,21,83,65,43,30.10,30.02,29.95,10,9,5,9,5,,0.00,0,,51